sensor_id;sensor_type;location;lat;lon;timestamp;pressure;altitude;pressure_sealevel;temperature;humidity
76070;BME280;64768;51.738;5.852;2022-11-20T00:00:53;101360.97;;;-0.44;83.22
76070;BME280;64768;51.738;5.852;2022-11-20T00:03:44;101379.84;;;-0.41;83.26
76070;BME280;64768;51.738;5.852;2022-11-20T00:09:47;101372.44;;;-0.35;82.99
76070;BME280;64768;51.738;5.852;2022-11-20T00:12:35;101367.25;;;-0.57;83.36
76070;BME280;64768;51.738;5.852;2022-11-20T00:15:40;101373.41;;;-0.48;83.65
76070;BME280;64768;51.738;5.852;2022-11-20T00:18:30;101369.78;;;-0.44;83.34
76070;BME280;64768;51.738;5.852;2022-11-20T00:21:35;101343.94;;;-0.57;83.14
76070;BME280;64768;51.738;5.852;2022-11-20T00:24:28;101371.50;;;-0.48;82.95
76070;BME280;64768;51.738;5.852;2022-11-20T00:27:17;101354.34;;;-0.64;83.49
76070;BME280;64768;51.738;5.852;2022-11-20T00:33:27;101342.66;;;-0.68;83.82
76070;BME280;64768;51.738;5.852;2022-11-20T00:36:11;101331.19;;;-0.69;83.28
76070;BME280;64768;51.738;5.852;2022-11-20T00:39:26;101345.53;;;-0.65;nan
76070;BME280;64768;51.738;5.852;2022-11-20T00:42:02;101341.25;;;-0.66;83.03
76070;BME280;64768;51.738;5.852;2022-11-20T00:44:49;101323.00;;;-0.72;83.38
76070;BME280;64768;51.738;5.852;2022-11-20T00:47:39;101341.91;;;-0.60;83.08
76070;BME280;64768;51.738;5.852;2022-11-20T00:50:20;101330.06;;;-0.68;83.09
76070;BME280;64768;51.738;5.852;2022-11-20T00:52:51;101356.84;;;-0.59;83.23
76070;BME280;64768;51.738;5.852;2022-11-20T00:55:32;101346.63;;;-0.57;83.09
76070;BME280;64768;51.738;5.852;2022-11-20T00:58:05;101337.97;;;-0.63;82.94
76070;BME280;64768;51.738;5.852;2022-11-20T01:01:07;101328.81;;;-0.79;82.98
76070;BME280;64768;51.738;5.852;2022-11-20T01:03:55;101337.19;;;-0.63;82.78
76070;BME280;64768;51.738;5.852;2022-11-20T01:07:08;101330.06;;;-0.68;82.75
76070;BME280;64768;51.738;5.852;2022-11-20T01:09:46;101328.97;;;-0.75;83.02
76070;BME280;64768;51.738;5.852;2022-11-20T01:12:29;101342.84;;;-0.65;83.05
76070;BME280;64768;51.738;5.852;2022-11-20T01:15:29;101339.53;;;-0.70;83.12
76070;BME280;64768;51.738;5.852;2022-11-20T01:18:27;101313.88;;;-0.80;82.79
76070;BME280;64768;51.738;5.852;2022-11-20T01:21:15;101329.47;;;-0.65;82.96
76070;BME280;64768;51.738;5.852;2022-11-20T01:23:56;101325.03;;;-0.69;82.73
76070;BME280;64768;51.738;5.852;2022-11-20T01:26:38;101328.66;;;-0.74;83.12
76070;BME280;64768;51.738;5.852;2022-11-20T01:29:21;101332.91;;;-0.73;82.99
76070;BME280;64768;51.738;5.852;2022-11-20T01:31:55;101327.72;;;-0.69;83.04
76070;BME280;64768;51.738;5.852;2022-11-20T01:34:24;101326.63;;;-0.77;83.05
76070;BME280;64768;51.738;5.852;2022-11-20T01:37:07;101330.72;;;-0.79;83.09
76070;BME280;64768;51.738;5.852;2022-11-20T01:39:48;101314.66;;;-0.79;83.08
76070;BME280;64768;51.738;5.852;2022-11-20T01:42:24;101313.56;;;-0.78;83.01
76070;BME280;64768;51.738;5.852;2022-11-20T01:48:09;101316.88;;;-0.81;82.87
76070;BME280;64768;51.738;5.852;2022-11-20T01:50:42;101332.09;;;-0.82;83.28
76070;BME280;64768;51.738;5.852;2022-11-20T01:53:15;101314.81;;;-0.93;83.08
76070;BME280;64768;51.738;5.852;2022-11-20T01:55:50;101314.00;;;-0.85;82.79
76070;BME280;64768;51.738;5.852;2022-11-20T01:58:27;101311.97;;;-0.88;82.95
76070;BME280;64768;51.738;5.852;2022-11-20T02:00:57;101321.75;;;-0.75;82.61
76070;BME280;64768;51.738;5.852;2022-11-20T02:03:37;101324.25;;;-0.78;82.63
76070;BME280;64768;51.738;5.852;2022-11-20T02:06:11;101307.09;;;-0.95;83.05
76070;BME280;64768;51.738;5.852;2022-11-20T02:08:45;101320.16;;;-0.84;82.64
76070;BME280;64768;51.738;5.852;2022-11-20T02:11:35;101315.44;;;-0.87;83.05
76070;BME280;64768;51.738;5.852;2022-11-20T02:14:09;101298.59;;;-0.97;82.79
76070;BME280;64768;51.738;5.852;2022-11-20T02:16:45;101309.59;;;-0.89;82.50
76070;BME280;64768;51.738;5.852;2022-11-20T02:19:22;101303.00;;;-0.83;82.74
76070;BME280;64768;51.738;5.852;2022-11-20T02:21:59;101310.72;;;-0.91;82.88
76070;BME280;64768;51.738;5.852;2022-11-20T02:24:39;101318.88;;;-0.87;82.88
76070;BME280;64768;51.738;5.852;2022-11-20T02:27:10;101320.78;;;-0.87;82.44
76070;BME280;64768;51.738;5.852;2022-11-20T02:29:45;101311.19;;;-0.88;82.62
76070;BME280;64768;51.738;5.852;2022-11-20T02:32:26;101305.84;;;-0.97;82.78
76070;BME280;64768;51.738;5.852;2022-11-20T02:35:07;101312.44;;;-0.95;82.87
76070;BME280;64768;51.738;5.852;2022-11-20T02:37:50;101305.53;;;-0.96;82.53
76070;BME280;64768;51.738;5.852;2022-11-20T02:40:30;101311.47;;;-0.99;82.68
76070;BME280;64768;51.738;5.852;2022-11-20T02:42:58;101297.78;;;-1.06;82.85
76070;BME280;64768;51.738;5.852;2022-11-20T02:45:33;101299.03;;;-1.12;82.68
76070;BME280;64768;51.738;5.852;2022-11-20T02:48:07;101293.69;;;-1.03;82.61
76070;BME280;64768;51.738;5.852;2022-11-20T02:50:41;101289.44;;;-1.13;82.27
76070;BME280;64768;51.738;5.852;2022-11-20T02:53:27;101285.34;;;-1.10;82.69
76070;BME280;64768;51.738;5.852;2022-11-20T02:56:17;101292.59;;;-1.11;82.68
76070;BME280;64768;51.738;5.852;2022-11-20T02:58:59;101280.13;;;-1.15;82.46
76070;BME280;64768;51.738;5.852;2022-11-20T03:01:53;101278.44;;;-1.11;82.32
76070;BME280;64768;51.738;5.852;2022-11-20T03:04:34;101286.28;;;-1.15;82.40
76070;BME280;64768;51.738;5.852;2022-11-20T03:07:07;101300.13;;;-1.13;82.26
76070;BME280;64768;51.738;5.852;2022-11-20T03:09:40;101317.91;;;-1.08;82.26
76070;BME280;64768;51.738;5.852;2022-11-20T03:12:11;101305.47;;;-1.13;82.31
76070;BME280;64768;51.738;5.852;2022-11-20T03:14:42;101306.59;;;-1.14;82.28
76070;BME280;64768;51.738;5.852;2022-11-20T03:17:14;101298.38;;;-1.26;82.59
76070;BME280;64768;51.738;5.852;2022-11-20T03:19:46;101291.28;;;-1.22;82.37
76070;BME280;64768;51.738;5.852;2022-11-20T03:22:17;101304.63;;;-1.31;82.41
76070;BME280;64768;51.738;5.852;2022-11-20T03:24:46;101307.66;;;-1.24;82.20
76070;BME280;64768;51.738;5.852;2022-11-20T03:27:20;101314.88;;;-1.15;82.40
76070;BME280;64768;51.738;5.852;2022-11-20T03:29:49;101304.81;;;-1.18;82.49
76070;BME280;64768;51.738;5.852;2022-11-20T03:32:20;101303.25;;;-1.28;82.52
76070;BME280;64768;51.738;5.852;2022-11-20T03:34:54;101295.22;;;-1.28;82.44
76070;BME280;64768;51.738;5.852;2022-11-20T03:37:23;101287.50;;;-1.30;82.20
76070;BME280;64768;51.738;5.852;2022-11-20T03:39:57;101305.13;;;-1.20;82.21
76070;BME280;64768;51.738;5.852;2022-11-20T03:42:35;101296.63;;;-1.22;82.49
76070;BME280;64768;51.738;5.852;2022-11-20T03:45:20;101268.50;;;-1.28;82.15
76070;BME280;64768;51.738;5.852;2022-11-20T03:47:51;101287.06;;;-1.23;82.28
76070;BME280;64768;51.738;5.852;2022-11-20T03:50:25;101287.06;;;-1.23;81.92
76070;BME280;64768;51.738;5.852;2022-11-20T03:52:55;101289.56;;;-1.18;81.84
76070;BME280;64768;51.738;5.852;2022-11-20T03:55:29;101277.00;;;-1.26;81.87
76070;BME280;64768;51.738;5.852;2022-11-20T03:58:03;101277.47;;;-1.24;81.75
76070;BME280;64768;51.738;5.852;2022-11-20T04:00:32;101277.09;;;-1.31;82.17
76070;BME280;64768;51.738;5.852;2022-11-20T04:03:02;101268.63;;;-1.33;82.38
76070;BME280;64768;51.738;5.852;2022-11-20T04:05:32;101286.22;;;-1.32;82.28
76070;BME280;64768;51.738;5.852;2022-11-20T04:08:01;101276.81;;;-1.30;82.54
76070;BME280;64768;51.738;5.852;2022-11-20T04:10:34;101271.50;;;-1.21;82.05
76070;BME280;64768;51.738;5.852;2022-11-20T04:13:06;101264.72;;;-1.27;81.97
76070;BME280;64768;51.738;5.852;2022-11-20T04:15:36;101270.38;;;-1.29;82.54
76070;BME280;64768;51.738;5.852;2022-11-20T04:18:06;101260.59;;;-1.33;81.97
76070;BME280;64768;51.738;5.852;2022-11-20T04:20:37;101265.97;;;-1.25;81.94
76070;BME280;64768;51.738;5.852;2022-11-20T04:23:07;101266.78;;;-1.24;81.67
76070;BME280;64768;51.738;5.852;2022-11-20T04:25:39;101254.94;;;-1.32;81.87
76070;BME280;64768;51.738;5.852;2022-11-20T04:28:14;101253.84;;;-1.39;82.14
76070;BME280;64768;51.738;5.852;2022-11-20T04:30:49;101266.28;;;-1.26;81.89
76070;BME280;64768;51.738;5.852;2022-11-20T04:33:26;101253.84;;;-1.31;81.93
76070;BME280;64768;51.738;5.852;2022-11-20T04:35:59;101243.66;;;-1.29;81.67
76070;BME280;64768;51.738;5.852;2022-11-20T04:38:30;101241.47;;;-1.27;81.37
76070;BME280;64768;51.738;5.852;2022-11-20T04:41:03;101247.13;;;-1.19;80.96
76070;BME280;64768;51.738;5.852;2022-11-20T04:43:45;101258.91;;;-1.21;81.30
76070;BME280;64768;51.738;5.852;2022-11-20T04:46:27;101238.00;;;-1.27;81.26
76070;BME280;64768;51.738;5.852;2022-11-20T04:48:56;101232.03;;;-1.24;81.16
76070;BME280;64768;51.738;5.852;2022-11-20T04:51:25;101243.00;;;-1.34;81.46
76070;BME280;64768;51.738;5.852;2022-11-20T04:53:57;101225.09;;;-1.34;81.10
76070;BME280;64768;51.738;5.852;2022-11-20T04:56:28;101238.13;;;-1.32;81.34
76070;BME280;64768;51.738;5.852;2022-11-20T04:59:06;101237.69;;;-1.26;81.13
76070;BME280;64768;51.738;5.852;2022-11-20T05:01:40;101244.59;;;-1.25;81.02
76070;BME280;64768;51.738;5.852;2022-11-20T05:04:09;101230.44;;;-1.34;81.27
76070;BME280;64768;51.738;5.852;2022-11-20T05:06:41;101239.88;;;-1.28;81.29
76070;BME280;64768;51.738;5.852;2022-11-20T05:09:11;101239.25;;;-1.25;81.14
76070;BME280;64768;51.738;5.852;2022-11-20T05:11:45;101221.63;;;-1.34;81.18
76070;BME280;64768;51.738;5.852;2022-11-20T05:14:19;101231.69;;;-1.31;81.16
76070;BME280;64768;51.738;5.852;2022-11-20T05:16:51;101234.03;;;-1.38;81.14
76070;BME280;64768;51.738;5.852;2022-11-20T05:19:24;101240.94;;;-1.37;81.33
76070;BME280;64768;51.738;5.852;2022-11-20T05:21:53;101227.13;;;-1.31;81.05
76070;BME280;64768;51.738;5.852;2022-11-20T05:24:25;101212.50;;;-1.42;81.03
76070;BME280;64768;51.738;5.852;2022-11-20T05:26:56;101222.09;;;-1.32;81.01
76070;BME280;64768;51.738;5.852;2022-11-20T05:29:28;101210.50;;;-1.28;80.67
76070;BME280;64768;51.738;5.852;2022-11-20T05:32:04;101202.59;;;-1.41;80.95
76070;BME280;64768;51.738;5.852;2022-11-20T05:34:35;101210.16;;;-1.35;80.97
76070;BME280;64768;51.738;5.852;2022-11-20T05:37:04;101200.25;;;-1.34;80.82
76070;BME280;64768;51.738;5.852;2022-11-20T05:39:33;101204.50;;;-1.33;80.81
76070;BME280;64768;51.738;5.852;2022-11-20T05:42:01;101208.09;;;-1.38;81.20
76070;BME280;64768;51.738;5.852;2022-11-20T05:44:49;101196.94;;;-1.40;80.60
76070;BME280;64768;51.738;5.852;2022-11-20T05:47:25;101207.63;;;-1.40;80.83
76070;BME280;64768;51.738;5.852;2022-11-20T05:50:06;101201.97;;;-1.38;81.03
76070;BME280;64768;51.738;5.852;2022-11-20T05:52:36;101200.09;;;-1.46;81.22
76070;BME280;64768;51.738;5.852;2022-11-20T05:55:08;101214.88;;;-1.32;80.80
76070;BME280;64768;51.738;5.852;2022-11-20T05:57:39;101219.09;;;-1.39;81.07
76070;BME280;64768;51.738;5.852;2022-11-20T06:00:14;101218.78;;;-1.46;81.01
76070;BME280;64768;51.738;5.852;2022-11-20T06:02:44;101226.97;;;-1.43;81.07
76070;BME280;64768;51.738;5.852;2022-11-20T06:05:13;101222.72;;;-1.35;80.92
76070;BME280;64768;51.738;5.852;2022-11-20T06:07:48;101221.47;;;-1.46;80.85
76070;BME280;64768;51.738;5.852;2022-11-20T06:10:17;101233.09;;;-1.42;81.19
76070;BME280;64768;51.738;5.852;2022-11-20T06:12:46;101219.41;;;-1.41;80.67
76070;BME280;64768;51.738;5.852;2022-11-20T06:15:17;101240.94;;;-1.46;80.73
76070;BME280;64768;51.738;5.852;2022-11-20T06:18:21;101230.53;;;-1.56;80.68
76070;BME280;64768;51.738;5.852;2022-11-20T06:21:07;101247.72;;;-1.40;81.11
76070;BME280;64768;51.738;5.852;2022-11-20T06:23:50;101246.09;;;-1.49;81.03
76070;BME280;64768;51.738;5.852;2022-11-20T06:26:34;101250.19;;;-1.52;81.07
76070;BME280;64768;51.738;5.852;2022-11-20T06:29:08;101239.50;;;-1.52;81.02
76070;BME280;64768;51.738;5.852;2022-11-20T06:31:45;101242.00;;;-1.47;80.64
76070;BME280;64768;51.738;5.852;2022-11-20T06:34:14;101240.59;;;-1.53;80.76
76070;BME280;64768;51.738;5.852;2022-11-20T06:36:47;101234.31;;;-1.57;80.96
76070;BME280;64768;51.738;5.852;2022-11-20T06:39:19;101238.25;;;-1.55;81.03
76070;BME280;64768;51.738;5.852;2022-11-20T06:41:51;101237.59;;;-1.60;81.21
76070;BME280;64768;51.738;5.852;2022-11-20T06:44:41;101230.19;;;-1.63;80.97
76070;BME280;64768;51.738;5.852;2022-11-20T06:47:37;101252.41;;;-1.45;80.59
76070;BME280;64768;51.738;5.852;2022-11-20T06:50:18;101254.41;;;-1.51;80.94
76070;BME280;64768;51.738;5.852;2022-11-20T06:52:49;101247.19;;;-1.51;80.94
76070;BME280;64768;51.738;5.852;2022-11-20T06:55:27;101228.44;;;-1.68;81.05
76070;BME280;64768;51.738;5.852;2022-11-20T06:58:03;101217.13;;;-1.73;80.96
76070;BME280;64768;51.738;5.852;2022-11-20T07:00:34;101228.31;;;-1.63;81.22
76070;BME280;64768;51.738;5.852;2022-11-20T07:03:10;101228.31;;;-1.63;80.81
76070;BME280;64768;51.738;5.852;2022-11-20T07:05:40;101249.41;;;-1.53;80.90
76070;BME280;64768;51.738;5.852;2022-11-20T07:08:13;101224.84;;;-1.63;81.01
76070;BME280;64768;51.738;5.852;2022-11-20T07:10:43;101243.09;;;-1.57;80.80
76070;BME280;64768;51.738;5.852;2022-11-20T07:13:15;101231.47;;;-1.61;80.93
76070;BME280;64768;51.738;5.852;2022-11-20T07:15:50;101243.91;;;-1.47;80.67
76070;BME280;64768;51.738;5.852;2022-11-20T07:18:26;101228.38;;;-1.45;80.37
76070;BME280;64768;51.738;5.852;2022-11-20T07:21:03;101223.31;;;-1.56;80.47
76070;BME280;64768;51.738;5.852;2022-11-20T07:23:35;101239.06;;;-1.45;80.67
76070;BME280;64768;51.738;5.852;2022-11-20T07:26:08;101234.81;;;-1.46;80.85
76070;BME280;64768;51.738;5.852;2022-11-20T07:28:38;101223.78;;;-1.62;80.98
76070;BME280;64768;51.738;5.852;2022-11-20T07:31:06;101237.66;;;-1.43;80.52
76070;BME280;64768;51.738;5.852;2022-11-20T07:33:38;101223.78;;;-1.54;80.85
76070;BME280;64768;51.738;5.852;2022-11-20T07:36:07;101238.56;;;-1.47;81.05
76070;BME280;64768;51.738;5.852;2022-11-20T07:38:37;101220.47;;;-1.51;81.07
76070;BME280;64768;51.738;5.852;2022-11-20T07:41:06;101218.47;;;-1.45;80.78
76070;BME280;64768;51.738;5.852;2022-11-20T07:43:38;101216.28;;;-1.43;81.36
76070;BME280;64768;51.738;5.852;2022-11-20T07:46:10;101226.66;;;-1.41;81.30
76070;BME280;64768;51.738;5.852;2022-11-20T07:48:41;101230.91;;;-1.40;81.24
76070;BME280;64768;51.738;5.852;2022-11-20T07:51:11;101231.84;;;-1.36;81.33
76070;BME280;64768;51.738;5.852;2022-11-20T07:53:41;101218.94;;;-1.34;81.01
76070;BME280;64768;51.738;5.852;2022-11-20T07:56:19;101222.09;;;-1.32;81.25
76070;BME280;64768;51.738;5.852;2022-11-20T07:58:51;101222.56;;;-1.39;82.16
76070;BME280;64768;51.738;5.852;2022-11-20T08:01:23;101229.03;;;-1.23;81.58
76070;BME280;64768;51.738;5.852;2022-11-20T08:03:54;101237.22;;;-1.19;81.29
76070;BME280;64768;51.738;5.852;2022-11-20T08:06:23;101230.78;;;-1.09;81.52
76070;BME280;64768;51.738;5.852;2022-11-20T08:08:51;101235.97;;;-1.04;81.29
76070;BME280;64768;51.738;5.852;2022-11-20T08:11:20;101232.69;;;-1.01;81.34
76070;BME280;64768;51.738;5.852;2022-11-20T08:14:01;101230.00;;;-1.01;81.46
76070;BME280;64768;51.738;5.852;2022-11-20T08:16:43;101237.88;;;-0.87;81.65
76070;BME280;64768;51.738;5.852;2022-11-20T08:19:16;101236.94;;;-0.92;81.61
76070;BME280;64768;51.738;5.852;2022-11-20T08:21:48;101234.41;;;-0.88;82.40
76070;BME280;64768;51.738;5.852;2022-11-20T08:24:24;101239.94;;;-0.93;82.75
76070;BME280;64768;51.738;5.852;2022-11-20T08:26:56;101230.47;;;-0.99;83.38
76070;BME280;64768;51.738;5.852;2022-11-20T08:29:26;101212.25;;;-0.97;83.59
76070;BME280;64768;51.738;5.852;2022-11-20T08:31:56;101236.00;;;-0.78;83.34
76070;BME280;64768;51.738;5.852;2022-11-20T08:34:31;101216.50;;;-0.79;83.61
76070;BME280;64768;51.738;5.852;2022-11-20T08:37:04;101223.25;;;-0.73;83.60
76070;BME280;64768;51.738;5.852;2022-11-20T08:39:33;101219.31;;;-0.67;83.40
76070;BME280;64768;51.738;5.852;2022-11-20T08:42:06;101226.06;;;-0.52;83.43
76070;BME280;64768;51.738;5.852;2022-11-20T08:44:38;101221.66;;;-0.48;83.66
76070;BME280;64768;51.738;5.852;2022-11-20T08:47:10;101208.13;;;-0.51;83.38
76070;BME280;64768;51.738;5.852;2022-11-20T08:49:41;101218.00;;;-0.35;83.61
76070;BME280;64768;51.738;5.852;2022-11-20T08:52:10;101218.19;;;-0.31;83.60
76070;BME280;64768;51.738;5.852;2022-11-20T08:54:41;101209.97;;;-0.35;83.91
76070;BME280;64768;51.738;5.852;2022-11-20T08:57:11;101217.03;;;-0.21;83.94
76070;BME280;64768;51.738;5.852;2022-11-20T08:59:40;101210.09;;;-0.14;83.56
76070;BME280;64768;51.738;5.852;2022-11-20T09:02:09;101211.81;;;-0.09;83.90
76070;BME280;64768;51.738;5.852;2022-11-20T09:04:38;101204.06;;;-0.02;83.85
76070;BME280;64768;51.738;5.852;2022-11-20T09:07:09;101188.31;;;-0.04;83.78
76070;BME280;64768;51.738;5.852;2022-11-20T09:09:38;101209.22;;;0.12;83.73
76070;BME280;64768;51.738;5.852;2022-11-20T09:12:11;101201.31;;;0.15;84.10
76070;BME280;64768;51.738;5.852;2022-11-20T09:14:40;101200.81;;;0.22;83.97
76070;BME280;64768;51.738;5.852;2022-11-20T09:17:09;101198.88;;;0.31;83.93
76070;BME280;64768;51.738;5.852;2022-11-20T09:19:39;101194.63;;;0.30;84.38
76070;BME280;64768;51.738;5.852;2022-11-20T09:22:11;101189.59;;;0.28;83.90
76070;BME280;64768;51.738;5.852;2022-11-20T09:24:40;101199.31;;;0.42;83.80
76070;BME280;64768;51.738;5.852;2022-11-20T09:27:09;101202.28;;;0.49;84.20
76070;BME280;64768;51.738;5.852;2022-11-20T09:29:37;101184.75;;;0.51;84.36
76070;BME280;64768;51.738;5.852;2022-11-20T09:32:06;101183.31;;;0.54;84.31
76070;BME280;64768;51.738;5.852;2022-11-20T09:34:34;101183.56;;;0.61;83.90
76070;BME280;64768;51.738;5.852;2022-11-20T09:37:03;101173.31;;;0.63;84.08
76070;BME280;64768;51.738;5.852;2022-11-20T09:39:35;101173.13;;;0.68;84.35
76070;BME280;64768;51.738;5.852;2022-11-20T09:42:22;101172.94;;;0.73;84.02
76070;BME280;64768;51.738;5.852;2022-11-20T09:45:06;101167.25;;;0.75;84.19
76070;BME280;64768;51.738;5.852;2022-11-20T09:47:58;101178.03;;;0.87;84.43
76070;BME280;64768;51.738;5.852;2022-11-20T09:50:32;101173.72;;;0.95;83.85
76070;BME280;64768;51.738;5.852;2022-11-20T09:53:15;101171.63;;;1.00;84.12
76070;BME280;64768;51.738;5.852;2022-11-20T09:55:50;101173.78;;;1.07;83.95
76070;BME280;64768;51.738;5.852;2022-11-20T09:58:27;101163.16;;;1.10;83.87
76070;BME280;64768;51.738;5.852;2022-11-20T10:01:17;101155.41;;;1.17;84.04
76070;BME280;64768;51.738;5.852;2022-11-20T10:04:43;101152.16;;;1.24;84.02
76070;BME280;64768;51.738;5.852;2022-11-20T10:07:31;101144.22;;;1.28;83.66
76070;BME280;64768;51.738;5.852;2022-11-20T10:10:25;101151.75;;;1.34;83.79
76070;BME280;64768;51.738;5.852;2022-11-20T10:13:18;101159.72;;;1.43;84.18
76070;BME280;64768;51.738;5.852;2022-11-20T10:16:20;101153.38;;;1.47;83.96
76070;BME280;64768;51.738;5.852;2022-11-20T10:19:03;101159.53;;;1.60;84.19
76070;BME280;64768;51.738;5.852;2022-11-20T10:21:55;101160.44;;;1.64;83.59
76070;BME280;64768;51.738;5.852;2022-11-20T10:24:43;101141.31;;;1.66;83.99
76070;BME280;64768;51.738;5.852;2022-11-20T10:30:12;101125.88;;;1.75;83.90
76070;BME280;64768;51.738;5.852;2022-11-20T10:32:43;101135.06;;;1.86;83.67
76070;BME280;64768;51.738;5.852;2022-11-20T10:35:23;101126.78;;;1.91;84.17
76070;BME280;64768;51.738;5.852;2022-11-20T10:38:03;101116.28;;;1.98;84.30
76070;BME280;64768;51.738;5.852;2022-11-20T10:40:37;101107.53;;;2.01;83.83
76070;BME280;64768;51.738;5.852;2022-11-20T10:43:12;101088.84;;;2.05;83.76
76070;BME280;64768;51.738;5.852;2022-11-20T10:45:50;101087.38;;;2.07;83.19
76070;BME280;64768;51.738;5.852;2022-11-20T10:48:22;101096.22;;;2.20;84.01
76070;BME280;64768;51.738;5.852;2022-11-20T10:51:15;101086.69;;;2.23;84.12
76070;BME280;64768;51.738;5.852;2022-11-20T10:53:58;101085.66;;;2.27;83.18
76070;BME280;64768;51.738;5.852;2022-11-20T10:56:32;101082.44;;;2.34;82.87
76070;BME280;64768;51.738;5.852;2022-11-20T10:59:30;101078.38;;;2.40;83.81
76070;BME280;64768;51.738;5.852;2022-11-20T11:02:17;101073.06;;;2.56;84.39
76070;BME280;64768;51.738;5.852;2022-11-20T11:04:49;101045.22;;;2.36;83.35
76070;BME280;64768;51.738;5.852;2022-11-20T11:07:22;101052.88;;;2.34;83.25
76070;BME280;64768;51.738;5.852;2022-11-20T11:09:54;101052.09;;;2.33;83.83
76070;BME280;64768;51.738;5.852;2022-11-20T11:12:25;101051.63;;;2.31;83.99
76070;BME280;64768;51.738;5.852;2022-11-20T11:14:57;101046.34;;;2.35;84.48
76070;BME280;64768;51.738;5.852;2022-11-20T11:17:31;101027.78;;;2.30;84.15
76070;BME280;64768;51.738;5.852;2022-11-20T11:20:04;101015.47;;;2.29;84.66
76070;BME280;64768;51.738;5.852;2022-11-20T11:22:46;101021.47;;;2.38;84.35
76070;BME280;64768;51.738;5.852;2022-11-20T11:25:36;101002.81;;;2.29;84.32
76070;BME280;64768;51.738;5.852;2022-11-20T11:28:28;101008.13;;;2.41;85.06
76070;BME280;64768;51.738;5.852;2022-11-20T11:31:08;101004.44;;;2.46;85.00
76070;BME280;64768;51.738;5.852;2022-11-20T11:33:39;100994.03;;;2.45;85.00
76070;BME280;64768;51.738;5.852;2022-11-20T11:36:26;100988.53;;;2.41;84.86
76070;BME280;64768;51.738;5.852;2022-11-20T11:39:06;100988.59;;;2.57;85.03
76070;BME280;64768;51.738;5.852;2022-11-20T11:41:42;100995.56;;;2.74;84.55
76070;BME280;64768;51.738;5.852;2022-11-20T11:44:21;100989.59;;;2.80;84.08
76070;BME280;64768;51.738;5.852;2022-11-20T11:47:05;100992.13;;;2.89;83.98
76070;BME280;64768;51.738;5.852;2022-11-20T11:49:40;100986.06;;;2.92;83.68
76070;BME280;64768;51.738;5.852;2022-11-20T11:52:14;100994.75;;;3.01;83.76
76070;BME280;64768;51.738;5.852;2022-11-20T11:54:51;100983.72;;;3.06;83.70
76070;BME280;64768;51.738;5.852;2022-11-20T11:57:28;100977.66;;;3.09;83.60
76070;BME280;64768;51.738;5.852;2022-11-20T12:00:03;100978.97;;;3.15;83.69
76070;BME280;64768;51.738;5.852;2022-11-20T12:02:36;100965.00;;;3.10;84.22
76070;BME280;64768;51.738;5.852;2022-11-20T12:05:18;100983.84;;;3.10;83.15
76070;BME280;64768;51.738;5.852;2022-11-20T12:07:51;100971.59;;;3.12;83.53
76070;BME280;64768;51.738;5.852;2022-11-20T12:10:28;100982.16;;;3.21;84.36
76070;BME280;64768;51.738;5.852;2022-11-20T12:13:11;100974.53;;;3.23;83.85
76070;BME280;64768;51.738;5.852;2022-11-20T12:15:54;100969.56;;;3.25;83.80
76070;BME280;64768;51.738;5.852;2022-11-20T12:18:39;100951.44;;;3.22;84.13
76070;BME280;64768;51.738;5.852;2022-11-20T12:21:33;100951.53;;;3.25;83.90
76070;BME280;64768;51.738;5.852;2022-11-20T12:25:01;100928.97;;;3.14;84.12
76070;BME280;64768;51.738;5.852;2022-11-20T12:27:53;100912.75;;;3.11;84.42
76070;BME280;64768;51.738;5.852;2022-11-20T12:41:08;100889.19;;;3.08;84.89
76070;BME280;64768;51.738;5.852;2022-11-20T12:44:39;100888.53;;;3.11;85.01
76070;BME280;64768;51.738;5.852;2022-11-20T12:48:17;100884.59;;;3.08;85.61
76070;BME280;64768;51.738;5.852;2022-11-20T12:57:19;100882.88;;;3.16;85.79
76070;BME280;64768;51.738;5.852;2022-11-20T13:00:21;100855.00;;;3.08;85.64
76070;BME280;64768;51.738;5.852;2022-11-20T13:06:55;100846.03;;;3.20;85.64
76070;BME280;64768;51.738;5.852;2022-11-20T13:09:52;100839.44;;;3.17;86.13
76070;BME280;64768;51.738;5.852;2022-11-20T13:12:57;100835.28;;;3.20;86.12
76070;BME280;64768;51.738;5.852;2022-11-20T13:16:22;100830.59;;;3.17;86.15
76070;BME280;64768;51.738;5.852;2022-11-20T13:19:19;100826.84;;;3.21;86.31
76070;BME280;64768;51.738;5.852;2022-11-20T13:22:04;100809.50;;;3.19;86.09
76070;BME280;64768;51.738;5.852;2022-11-20T13:24:33;100808.72;;;3.18;86.10
76070;BME280;64768;51.738;5.852;2022-11-20T13:27:18;100813.38;;;3.21;86.10
76070;BME280;64768;51.738;5.852;2022-11-20T13:30:12;100797.53;;;3.16;86.42
76070;BME280;64768;51.738;5.852;2022-11-20T13:32:51;100801.84;;;3.21;86.54
76070;BME280;64768;51.738;5.852;2022-11-20T13:35:33;100788.03;;;3.22;86.49
76070;BME280;64768;51.738;5.852;2022-11-20T13:38:07;100791.16;;;3.24;86.60
76070;BME280;64768;51.738;5.852;2022-11-20T13:40:37;100771.09;;;3.22;86.99
76070;BME280;64768;51.738;5.852;2022-11-20T13:43:23;100765.88;;;3.29;86.54
76070;BME280;64768;51.738;5.852;2022-11-20T13:45:57;100764.03;;;3.33;86.70
76070;BME280;64768;51.738;5.852;2022-11-20T13:48:30;100767.94;;;3.36;86.64
76070;BME280;64768;51.738;5.852;2022-11-20T13:51:12;100764.94;;;3.41;86.73
76070;BME280;64768;51.738;5.852;2022-11-20T13:56:50;100763.38;;;3.40;86.88
76070;BME280;64768;51.738;5.852;2022-11-20T13:59:40;100758.47;;;3.42;86.83
76070;BME280;64768;51.738;5.852;2022-11-20T14:02:15;100751.94;;;3.43;86.78
76070;BME280;64768;51.738;5.852;2022-11-20T14:04:46;100736.47;;;3.40;86.73
76070;BME280;64768;51.738;5.852;2022-11-20T14:07:15;100726.16;;;3.42;86.92
76070;BME280;64768;51.738;5.852;2022-11-20T14:09:50;100732.31;;;3.42;87.45
76070;BME280;64768;51.738;5.852;2022-11-20T14:12:23;100727.25;;;3.41;87.54
76070;BME280;64768;51.738;5.852;2022-11-20T14:14:58;100726.47;;;3.40;87.72
76070;BME280;64768;51.738;5.852;2022-11-20T14:17:31;100714.09;;;3.36;87.62
76070;BME280;64768;51.738;5.852;2022-11-20T14:20:02;100703.03;;;3.41;87.73
76070;BME280;64768;51.738;5.852;2022-11-20T14:22:32;100694.63;;;3.42;87.63
76070;BME280;64768;51.738;5.852;2022-11-20T14:25:04;100695.41;;;3.43;87.98